Time;durP1;ratioP1;P1;durP2;ratioP2;P2;SDS_P1;SDS_P2;PMS_P1;PMS_P2;Temp;Humidity;BMP_temperature;BMP_pressure;BME280_temperature;BME280_humidity;BME280_pressure;Samples;Min_cycle;Max_cycle;Signal;HPM_P1;HPM_P2
2022/09/16 00:00:47;;;;;;;5.63;2.17;;;;;;;25.35;52.42;99947.56;5073809;28;20049;-73
2022/09/16 00:03:16;;;;;;;7.70;2.85;;;;;;;25.36;52.30;99946.50;5073525;28;20047;-73
2022/09/16 00:05:49;;;;;;;4.50;2.30;;;;;;;25.36;52.40;99941.09;5073748;28;20060;-73
2022/09/16 00:08:17;;;;;;;;;;;;;;;25.34;52.53;99944.00;5075777;28;20412;-72
2022/09/16 00:10:44;;;;;;;3.97;2.28;;;;;;;25.36;52.36;99927.53;5077677;28;19920;-73
2022/09/16 00:13:12;;;;;;;4.20;2.13;;;;;;;25.36;52.59;99933.84;5077130;28;20044;-72
2022/09/16 00:15:49;;;;;;;3.40;2.08;;;;;;;25.36;52.51;99932.97;5077067;28;20052;-73
2022/09/16 00:18:19;;;;;;;3.90;2.10;;;;;;;25.37;52.66;99931.97;5077921;28;20047;-73
2022/09/16 00:20:49;;;;;;;3.15;2.35;;;;;;;25.36;52.55;99932.97;5077087;28;20041;-73
2022/09/16 00:23:17;;;;;;;5.80;2.38;;;;;;;25.36;52.64;99927.53;5075952;28;20036;-72
2022/09/16 00:25:54;;;;;;;4.55;2.00;;;;;;;25.36;52.77;99925.72;5077368;28;20041;-73
2022/09/16 00:28:22;;;;;;;5.10;2.13;;;;;;;25.36;52.80;99931.13;5077638;28;20048;-73
2022/09/16 00:30:50;;;;;;;3.58;2.00;;;;;;;25.36;52.73;99935.69;5076707;28;20045;-72
2022/09/16 00:33:18;;;;;;;3.50;2.20;;;;;;;25.38;52.79;99936.34;5076618;28;20053;-73
2022/09/16 00:35:46;;;;;;;3.72;1.92;;;;;;;25.37;52.94;99940.91;5076756;28;20048;-73
2022/09/16 00:38:14;;;;;;;5.70;2.47;;;;;;;25.38;52.98;99941.75;5076868;28;20051;-72
2022/09/16 00:40:46;;;;;;;4.18;2.40;;;;;;;25.38;53.07;99933.63;5077600;28;20055;-73
2022/09/16 00:43:18;;;;;;;3.70;2.35;;;;;;;25.38;53.02;99939.03;5076632;28;20045;-72
2022/09/16 00:45:54;;;;;;;5.25;3.15;;;;;;;25.39;53.05;99932.59;5077378;28;20057;-73
2022/09/16 00:48:24;;;;;;;4.35;2.22;;;;;;;25.37;53.24;99938.22;5077044;28;20044;-72
2022/09/16 00:51:04;;;;;;;2.63;1.92;;;;;;;25.38;53.16;99936.34;5077197;28;20041;-73
2022/09/16 00:53:39;;;;;;;5.05;2.38;;;;;;;25.38;53.29;99944.47;5075701;28;20045;-73
2022/09/16 00:56:12;;;;;;;5.63;2.45;;;;;;;25.39;53.15;99940.72;5075514;28;20057;-73
2022/09/16 00:59:17;;;;;;;5.50;2.13;;;;;;;25.38;53.29;99941.75;5076758;28;20048;-72
2022/09/16 01:01:45;;;;;;;3.75;2.17;;;;;;;25.37;53.49;99932.78;5075310;28;20060;-73
2022/09/16 01:04:50;;;;;;;3.58;2.05;;;;;;;25.38;53.44;99934.47;5076913;28;20392;-72
2022/09/16 01:07:25;;;;;;;3.35;2.08;;;;;;;25.39;53.44;99940.72;5075149;28;20499;-73
2022/09/16 01:09:52;;;;;;;3.95;2.40;;;;;;;25.38;53.63;99934.47;5076419;28;20048;-73
2022/09/16 01:12:20;;;;;;;4.80;2.33;;;;;;;25.40;53.57;99931.53;5076414;28;20050;-73
2022/09/16 01:14:53;;;;;;;7.50;2.35;;;;;;;25.39;53.60;99929.88;5076060;28;20385;-73
2022/09/16 01:17:46;;;;;;;5.05;2.25;;;;;;;25.37;53.68;99937.38;5076799;28;20048;-72
2022/09/16 01:20:50;;;;;;;3.97;2.05;;;;;;;25.38;53.69;99928.22;5053232;28;20484;-73
2022/09/16 01:23:40;;;;;;;2.70;2.10;;;;;;;25.38;53.61;99933.63;5054401;28;20061;-73
2022/09/16 01:26:07;;;;;;;4.47;2.33;;;;;;;25.37;53.44;99932.78;5054535;28;20061;-72
2022/09/16 01:28:41;;;;;;;4.10;1.98;;;;;;;25.36;53.50;99930.25;5053891;28;20060;-73
2022/09/16 01:31:31;;;;;;;3.92;2.10;;;;;;;25.36;53.26;99930.25;5053864;28;20069;-73
2022/09/16 01:34:10;;;;;;;4.65;1.95;;;;;;;25.37;53.25;99930.09;5053743;28;20056;-73
2022/09/16 01:36:56;;;;;;;3.22;2.10;;;;;;;25.37;53.40;99926.53;5037671;28;20057;-73
2022/09/16 01:39:37;;;;;;;3.65;2.33;;;;;;;25.37;53.30;99934.66;5054255;28;20092;-73
2022/09/16 01:42:23;;;;;;;3.30;2.03;;;;;;;25.36;53.43;99930.25;5053746;28;20053;-73
2022/09/16 01:44:50;;;;;;;3.45;2.10;;;;;;;25.36;53.12;99935.69;5053995;28;20060;-73
2022/09/16 01:47:23;;;;;;;2.85;1.73;;;;;;;25.35;53.06;99924.00;5053510;28;20076;-73
2022/09/16 01:49:58;;;;;;;3.63;1.80;;;;;;;25.36;53.25;99925.72;5053834;28;20448;-73
2022/09/16 01:52:52;;;;;;;2.35;1.90;;;;;;;25.35;53.06;99934.84;5053620;28;20053;-71
2022/09/16 01:55:31;;;;;;;6.20;2.25;;;;;;;25.35;53.09;99926.72;5053753;28;20045;-72
2022/09/16 01:58:07;;;;;;;4.57;2.10;;;;;;;25.35;52.89;99928.59;5068896;28;20056;-71
2022/09/16 02:00:39;;;;;;;2.97;1.88;;;;;;;25.34;53.06;99925.03;5075809;28;20495;-72
2022/09/16 02:03:11;;;;;;;5.32;1.90;;;;;;;25.36;52.87;99924.84;5075821;28;20059;-71
2022/09/16 02:05:49;;;;;;;4.28;2.50;;;;;;;25.35;52.93;99924.00;5075573;28;20045;-71
2022/09/16 02:08:25;;;;;;;4.93;2.35;;;;;;;25.36;53.31;99930.25;5075347;28;20037;-72
2022/09/16 02:10:58;;;;;;;3.85;2.08;;;;;;;25.37;52.76;99931.97;5075526;28;20048;-72
2022/09/16 02:13:28;;;;;;;5.15;2.05;;;;;;;25.36;53.12;99931.13;5075508;28;20056;-72
2022/09/16 02:16:00;;;;;;;3.38;2.00;;;;;;;25.36;52.99;99924.84;5074095;28;20036;-71
2022/09/16 02:18:34;;;;;;;5.35;2.15;;;;;;;25.38;52.95;99925.50;5075701;28;20052;-72
2022/09/16 02:21:04;;;;;;;5.35;2.20;;;;;;;25.37;52.97;99931.97;5075016;28;20040;-72
2022/09/16 02:23:39;;;;;;;2.90;1.90;;;;;;;25.36;52.86;99925.72;5075439;28;20040;-71
2022/09/16 02:26:10;;;;;;;3.47;1.83;;;;;;;25.36;52.83;99924.84;5074700;28;20044;-71
2022/09/16 02:28:40;;;;;;;2.90;2.05;;;;;;;25.35;53.12;99932.13;5074761;28;20055;-72
2022/09/16 02:31:11;;;;;;;5.18;2.20;;;;;;;25.35;53.15;99918.59;5075327;28;20059;-71
2022/09/16 02:33:50;;;;;;;4.10;1.70;;;;;;;25.36;52.97;99924.84;5074788;28;20496;-71
2022/09/16 02:36:21;;;;;;;3.63;2.05;;;;;;;25.35;53.06;99920.47;5074968;28;20041;-71
2022/09/16 02:38:55;;;;;;;2.70;1.90;;;;;;;25.36;53.14;99919.41;5075025;28;20471;-71
2022/09/16 02:41:22;;;;;;;3.00;1.90;;;;;;;25.35;53.03;99918.59;5074310;28;20044;-71
2022/09/16 02:44:01;;;;;;;2.78;1.67;;;;;;;25.34;53.11;99905.25;5073283;28;20534;-74
2022/09/16 02:47:02;;;;;;;3.53;1.98;;;;;;;25.34;53.16;99905.25;5058553;28;20049;-72
2022/09/16 02:49:42;;;;;;;4.30;1.88;;;;;;;25.35;53.13;99906.91;5074752;28;20485;-72
2022/09/16 02:52:20;;;;;;;3.90;2.03;;;;;;;25.34;53.10;99907.94;5074642;28;20048;-72
2022/09/16 02:54:51;;;;;;;4.10;2.50;;;;;;;25.33;52.95;99909.00;5072764;28;20056;-72
2022/09/16 02:57:19;;;;;;;3.08;2.10;;;;;;;25.33;52.95;99904.41;5074394;28;20049;-72
2022/09/16 02:59:47;;;;;;;3.60;2.17;;;;;;;25.33;52.62;99906.28;5074543;28;20045;-72
2022/09/16 03:02:15;;;;;;;4.40;2.17;;;;;;;25.33;52.70;99903.56;5074015;28;20408;-72
2022/09/16 03:04:43;;;;;;;4.45;2.33;;;;;;;25.32;52.78;99901.88;5073998;28;20397;-72
2022/09/16 03:07:11;;;;;;;2.80;2.10;;;;;;;25.32;52.58;99900.03;5074204;28;20393;-71
2022/09/16 03:09:42;;;;;;;3.20;1.85;;;;;;;25.32;52.79;99902.75;5073661;28;20045;-71
2022/09/16 03:12:40;;;;;;;3.72;1.70;;;;;;;25.32;52.81;99908.16;5074351;28;20047;-71
2022/09/16 03:15:27;;;;;;;3.65;1.60;;;;;;;25.31;52.91;99914.59;5074539;28;20048;-72
2022/09/16 03:18:09;;;;;;;3.70;2.00;;;;;;;25.33;52.82;99909.81;5074373;28;20051;-72
2022/09/16 03:20:42;;;;;;;3.37;1.70;;;;;;;25.33;52.68;99909.81;5074319;28;20040;-71
2022/09/16 03:23:37;;;;;;;2.45;2.00;;;;;;;25.34;52.88;99910.66;5074042;28;20277;-72
2022/09/16 03:26:33;;;;;;;2.65;1.90;;;;;;;25.33;52.89;99898.16;5073898;28;20392;-72
2022/09/16 03:29:19;;;;;;;3.28;2.05;;;;;;;25.33;52.97;99909.00;5073128;28;20056;-72
2022/09/16 03:32:11;;;;;;;2.90;2.03;;;;;;;25.32;52.80;99897.31;5074184;28;20040;-72
2022/09/16 03:34:46;;;;;;;3.63;2.08;;;;;;;25.33;52.83;99903.56;5073713;28;20056;-72
2022/09/16 03:37:16;;;;;;;5.22;2.25;;;;;;;25.32;52.88;99896.47;5074458;28;20048;-71
2022/09/16 03:39:52;;;;;;;4.28;2.53;;;;;;;25.32;52.87;99897.31;5074318;28;20044;-71
2022/09/16 03:42:20;;;;;;;2.67;2.28;;;;;;;25.33;53.38;99904.41;5073023;28;20044;-72
2022/09/16 03:44:47;;;;;;;3.75;2.15;;;;;;;25.32;53.36;99908.16;5073530;28;20051;-71
2022/09/16 03:47:15;;;;;;;3.55;2.08;;;;;;;25.30;53.15;99902.09;5073496;28;20056;-72
2022/09/16 03:49:42;;;;;;;3.92;1.90;;;;;;;25.30;53.18;99903.97;5073522;28;20052;-72
2022/09/16 03:52:10;;;;;;;3.45;2.17;;;;;;;25.27;53.12;99897.03;5073282;28;20051;-71
2022/09/16 03:54:37;;;;;;;5.28;2.33;;;;;;;25.26;53.11;99895.38;5073707;28;20051;-71
2022/09/16 03:57:05;;;;;;;3.63;1.60;;;;;;;25.25;53.13;99896.41;5073553;28;20040;-71
2022/09/16 03:59:33;;;;;;;8.10;2.20;;;;;;;25.23;53.11;99890.34;5073265;28;20040;-71
2022/09/16 04:02:00;;;;;;;4.18;2.03;;;;;;;25.23;53.17;99887.63;5073214;28;20399;-71
2022/09/16 04:04:27;;;;;;;3.17;2.00;;;;;;;25.22;53.04;99885.13;5073494;28;20484;-71
2022/09/16 04:06:54;;;;;;;3.40;1.98;;;;;;;25.20;53.30;99876.34;5073750;28;20044;-71
2022/09/16 04:09:22;;;;;;;4.50;2.40;;;;;;;25.20;53.52;99876.34;5073734;28;20055;-72
2022/09/16 04:11:49;;;;;;;3.53;2.00;;;;;;;25.19;53.38;99886.34;5073341;28;20070;-71
2022/09/16 04:14:16;;;;;;;2.67;1.83;;;;;;;25.20;53.63;99887.16;5073152;28;20052;-72
2022/09/16 04:16:44;;;;;;;5.38;2.55;;;;;;;25.19;53.41;99885.50;5073149;28;20396;-71
2022/09/16 04:19:12;;;;;;;6.00;2.45;;;;;;;25.18;53.15;99891.97;5073884;28;20044;-72
2022/09/16 04:21:41;;;;;;;5.57;2.53;;;;;;;25.18;52.91;99898.22;5072930;28;20072;-71
2022/09/16 04:24:08;;;;;;;4.90;2.38;;;;;;;25.17;52.88;99884.88;5073817;28;20052;-71
2022/09/16 04:26:40;;;;;;;3.28;2.20;;;;;;;25.15;52.75;99888.59;5072643;28;20049;-71
2022/09/16 04:29:07;;;;;;;3.50;1.95;;;;;;;25.15;52.74;99894.00;5072231;28;20052;-72
2022/09/16 04:31:35;;;;;;;4.22;2.13;;;;;;;25.14;52.55;99895.03;5073170;28;20047;-72
2022/09/16 04:34:03;;;;;;;4.93;2.58;;;;;;;25.14;52.64;99886.09;5073026;28;20060;-72
2022/09/16 04:36:31;;;;;;;2.83;2.00;;;;;;;25.12;52.49;99897.13;5073136;28;20040;-72
2022/09/16 04:38:58;;;;;;;4.43;2.20;;;;;;;25.12;52.49;99890.88;5073529;28;20048;-71
2022/09/16 04:41:26;;;;;;;3.75;2.42;;;;;;;25.12;52.60;99904.41;5073044;28;20044;-72
2022/09/16 04:43:56;;;;;;;3.90;2.25;;;;;;;25.10;53.03;99901.88;5073733;28;20044;-72
2022/09/16 04:46:24;;;;;;;5.20;2.70;;;;;;;25.11;52.73;99894.59;5073122;28;20043;-72
2022/09/16 04:48:53;;;;;;;3.03;2.17;;;;;;;25.10;52.66;99892.91;5073265;28;20049;-72
2022/09/16 04:51:22;;;;;;;4.85;2.20;;;;;;;25.09;52.58;99897.50;5072933;28;20507;-72
2022/09/16 04:53:49;;;;;;;3.92;2.65;;;;;;;25.09;52.64;99900.22;5073195;28;20041;-72
2022/09/16 04:56:23;;;;;;;3.40;2.40;;;;;;;25.09;52.92;99896.66;5074652;28;20408;-71
2022/09/16 04:58:54;;;;;;;4.05;2.10;;;;;;;25.08;53.07;99908.50;5077093;28;20051;-72
2022/09/16 05:01:27;;;;;;;10.40;2.50;;;;;;;25.08;53.24;99912.03;5076834;28;20059;-72
2022/09/16 05:03:57;;;;;;;5.85;2.80;;;;;;;25.08;53.24;99911.22;5076848;28;20059;-72
2022/09/16 05:06:33;;;;;;;2.92;2.28;;;;;;;25.07;52.78;99917.63;5076464;28;20048;-72
2022/09/16 05:09:01;;;;;;;3.30;2.35;;;;;;;25.06;53.00;99924.94;5077102;28;20052;-72
2022/09/16 05:11:32;;;;;;;3.85;2.35;;;;;;;25.05;53.10;99917.84;5076876;28;20052;-72
2022/09/16 05:14:01;;;;;;;3.50;2.35;;;;;;;25.05;53.46;99912.41;5076894;28;20052;-72
2022/09/16 05:16:29;;;;;;;3.75;2.17;;;;;;;25.05;53.21;99922.41;5075981;28;20041;-72
2022/09/16 05:18:58;;;;;;;3.67;2.53;;;;;;;25.05;53.40;99915.13;5075876;28;20040;-72
2022/09/16 05:21:27;;;;;;;2.63;2.10;;;;;;;25.04;53.54;99916.16;5076219;28;20511;-72
2022/09/16 05:23:59;;;;;;;3.90;2.17;;;;;;;25.05;53.58;99917.00;5076843;28;20040;-72
2022/09/16 05:26:30;;;;;;;4.03;2.53;;;;;;;25.03;53.48;99917.19;5076365;28;20040;-72
2022/09/16 05:29:03;;;;;;;4.03;2.28;;;;;;;25.03;53.30;99919.88;5076381;28;20059;-72
2022/09/16 05:31:33;;;;;;;4.32;2.65;;;;;;;25.02;53.32;99914.66;5076708;28;20075;-72
2022/09/16 05:34:03;;;;;;;3.35;2.45;;;;;;;25.02;53.43;99915.50;5075849;28;20053;-72
2022/09/16 05:36:33;;;;;;;3.70;2.53;;;;;;;25.02;53.41;99914.66;5076501;28;20053;-72
2022/09/16 05:39:01;;;;;;;5.25;2.45;;;;;;;25.03;53.69;99919.88;5075540;28;20052;-72
2022/09/16 05:41:49;;;;;;;3.97;2.40;;;;;;;25.03;53.18;99913.63;5076059;28;20056;-72
2022/09/16 05:44:16;;;;;;;3.45;2.45;;;;;;;25.03;53.03;99919.88;5075716;28;20044;-71
2022/09/16 05:46:44;;;;;;;4.20;2.92;;;;;;;25.02;53.09;99915.50;5075348;28;20040;-72
2022/09/16 05:49:11;;;;;;;6.00;3.20;;;;;;;25.02;53.07;99912.78;5074264;28;20055;-72
2022/09/16 05:51:40;;;;;;;5.60;3.25;;;;;;;25.02;53.18;99910.09;5075238;28;20393;-72
2022/09/16 05:54:09;;;;;;;3.45;2.67;;;;;;;25.03;53.23;99908.22;5075803;28;20075;-71
2022/09/16 05:56:36;;;;;;;4.72;2.50;;;;;;;25.04;53.16;99910.75;5075153;28;20509;-72
2022/09/16 05:59:04;;;;;;;3.60;2.60;;;;;;;25.05;53.02;99915.13;5074027;28;20048;-72
2022/09/16 06:01:35;;;;;;;4.13;2.92;;;;;;;25.05;52.96;99914.28;5075958;28;20056;-72
2022/09/16 06:04:05;;;;;;;5.30;2.90;;;;;;;25.05;53.16;99909.72;5074971;28;20485;-72
2022/09/16 06:06:37;;;;;;;5.70;2.97;;;;;;;25.06;53.12;99908.69;5075355;28;20048;-72
2022/09/16 06:09:04;;;;;;;5.25;2.95;;;;;;;25.07;53.00;99914.94;5075757;28;20111;-72
2022/09/16 06:11:36;;;;;;;3.88;2.92;;;;;;;25.07;52.94;99912.22;5075366;28;20051;-72
2022/09/16 06:14:04;;;;;;;7.47;3.10;;;;;;;25.08;53.32;99913.91;5075617;28;20045;-72
2022/09/16 06:16:32;;;;;;;4.88;2.95;;;;;;;25.09;53.39;99908.31;5075262;28;20041;-72
2022/09/16 06:19:01;;;;;;;4.88;3.03;;;;;;;25.09;53.31;99902.91;5075243;28;20502;-72
2022/09/16 06:21:29;;;;;;;4.85;2.63;;;;;;;25.12;53.35;99915.25;5074850;28;20045;-72
2022/09/16 06:23:56;;;;;;;4.03;2.75;;;;;;;25.13;53.33;99914.22;5075854;28;20040;-71
2022/09/16 06:26:25;;;;;;;6.90;2.90;;;;;;;25.14;53.49;99918.59;5073816;28;20049;-72
2022/09/16 06:28:53;;;;;;;4.57;3.10;;;;;;;25.15;53.57;99912.13;5075058;28;20045;-72
2022/09/16 06:31:26;;;;;;;7.25;2.78;;;;;;;25.18;53.64;99913.63;5074920;28;20055;-72
2022/09/16 06:33:54;;;;;;;;;;;;;;;25.18;53.69;99908.22;5074920;28;20057;-72
2022/09/16 06:36:24;;;;;;;5.78;2.42;;;;;;;25.18;53.71;99906.34;5074279;28;19928;-72
2022/09/16 06:38:52;;;;;;;4.80;2.90;;;;;;;25.20;53.81;99904.28;5075101;28;20400;-72
2022/09/16 06:41:20;;;;;;;4.38;2.50;;;;;;;25.21;53.80;99902.41;5074756;28;20148;-72
2022/09/16 06:43:50;;;;;;;3.90;2.65;;;;;;;25.21;53.78;99907.84;5074969;28;20063;-71
2022/09/16 06:46:21;;;;;;;4.88;2.92;;;;;;;25.22;53.57;99902.22;5073948;28;20050;-72
2022/09/16 06:48:51;;;;;;;6.97;3.28;;;;;;;25.23;53.87;99894.91;5077392;28;20067;-72
2022/09/16 06:51:24;;;;;;;8.23;3.28;;;;;;;25.24;53.68;99894.75;5094626;28;20375;-72
2022/09/16 06:53:54;;;;;;;6.80;3.35;;;;;;;25.26;53.63;99891.81;5095084;28;20055;-72
2022/09/16 06:56:21;;;;;;;5.47;2.58;;;;;;;25.28;53.68;99900.59;5094917;28;20055;-72
2022/09/16 06:58:54;;;;;;;9.75;3.08;;;;;;;25.29;53.69;99899.56;5094334;28;20044;-72
2022/09/16 07:01:25;;;;;;;7.60;3.03;;;;;;;25.30;53.89;99895.81;5093708;28;20040;-71
2022/09/16 07:03:53;;;;;;;8.93;2.97;;;;;;;25.31;54.00;99894.78;5094519;28;20055;-71
2022/09/16 07:06:23;;;;;;;8.20;3.20;;;;;;;25.32;54.45;99899.16;5094768;28;20044;-72
2022/09/16 07:09:10;;;;;;;8.65;3.35;;;;;;;25.33;54.92;99893.56;5094826;28;20044;-72
2022/09/16 07:11:39;;;;;;;7.50;3.33;;;;;;;25.35;55.11;99896.06;5093509;28;20044;-73
2022/09/16 07:14:07;;;;;;;6.72;2.78;;;;;;;25.36;55.16;99895.91;5094130;28;20044;-72
2022/09/16 07:16:34;;;;;;;9.48;3.63;;;;;;;25.37;54.95;99896.72;5093885;28;20040;-72
2022/09/16 07:19:02;;;;;;;9.13;3.25;;;;;;;25.38;54.75;99892.97;5093807;28;20040;-72
2022/09/16 07:21:30;;;;;;;6.65;3.00;;;;;;;25.40;54.93;99891.78;5094326;28;20058;-72
2022/09/16 07:24:00;;;;;;;4.68;2.47;;;;;;;25.40;54.77;99889.06;5093734;28;20043;-72
2022/09/16 07:26:31;;;;;;;6.10;3.10;;;;;;;25.41;54.76;99884.47;5093873;28;20048;-71
2022/09/16 07:29:00;;;;;;;6.55;3.35;;;;;;;25.42;54.79;99877.19;5093737;28;20051;-72
2022/09/16 07:31:31;;;;;;;4.50;2.80;;;;;;;25.43;54.78;99873.44;5093519;28;20048;-72
2022/09/16 07:34:00;;;;;;;6.75;3.20;;;;;;;25.43;55.19;99871.56;5092453;28;20059;-71
2022/09/16 07:36:38;;;;;;;6.72;2.92;;;;;;;25.44;55.54;99870.50;5093840;28;20052;-72
2022/09/16 07:39:07;;;;;;;4.25;2.60;;;;;;;25.47;55.36;99883.69;5093780;28;20044;-72
2022/09/16 07:41:37;;;;;;;5.60;3.15;;;;;;;25.48;55.08;99882.66;5093532;28;20044;-71
2022/09/16 07:44:06;;;;;;;5.72;2.58;;;;;;;25.49;54.97;99881.63;5093430;28;20407;-71
2022/09/16 07:46:35;;;;;;;5.75;2.80;;;;;;;25.50;55.26;99888.72;5093814;28;20047;-71
2022/09/16 07:49:04;;;;;;;7.65;2.83;;;;;;;25.52;55.31;99886.66;5093810;28;20472;-72
2022/09/16 07:51:32;;;;;;;5.75;2.85;;;;;;;25.52;55.21;99892.09;5094279;28;20146;-72
2022/09/16 07:54:03;;;;;;;6.15;2.75;;;;;;;25.53;55.37;99901.88;5093990;28;20048;-72
2022/09/16 07:56:33;;;;;;;5.47;3.08;;;;;;;25.54;55.56;99898.13;5092838;28;20051;-71
2022/09/16 07:59:02;;;;;;;5.22;2.80;;;;;;;25.56;55.55;99900.63;5093962;28;20050;-73
2022/09/16 08:01:30;;;;;;;6.53;3.00;;;;;;;25.56;55.59;99898.78;5093427;28;20100;-71
2022/09/16 08:03:59;;;;;;;8.50;2.95;;;;;;;25.58;55.51;99902.13;5093253;28;20051;-72
2022/09/16 08:06:28;;;;;;;6.18;2.95;;;;;;;25.58;55.44;99902.13;5092141;28;20048;-71
2022/09/16 08:08:58;;;;;;;6.75;3.17;;;;;;;25.61;55.39;99901.75;5093374;28;20036;-71
2022/09/16 08:11:45;;;;;;;7.78;3.15;;;;;;;25.61;55.65;99900.91;5093316;28;20473;-72
2022/09/16 08:14:13;;;;;;;4.43;2.42;;;;;;;25.64;55.47;99903.22;5093128;28;20403;-72
2022/09/16 08:16:40;;;;;;;6.90;3.10;;;;;;;25.63;55.39;99905.09;5093147;28;20044;-72
2022/09/16 08:19:08;;;;;;;9.05;3.50;;;;;;;25.66;55.34;99903.88;5092150;28;20048;-73
2022/09/16 08:21:35;;;;;;;6.30;2.80;;;;;;;25.65;55.33;99900.31;5093113;28;20044;-72
2022/09/16 08:24:02;;;;;;;5.60;2.78;;;;;;;25.67;55.39;99905.53;5093293;28;20040;-72
2022/09/16 08:26:29;;;;;;;7.70;2.85;;;;;;;25.67;55.32;99908.25;5093423;28;20384;-72
2022/09/16 08:28:57;;;;;;;7.88;2.85;;;;;;;25.70;55.19;99907.03;5093990;28;20051;-72
2022/09/16 08:31:36;;;;;;;5.90;3.08;;;;;;;25.71;55.26;99908.69;5097211;28;20055;-72
2022/09/16 08:34:04;;;;;;;8.82;3.13;;;;;;;25.70;54.73;99907.03;5096702;28;20052;-72
2022/09/16 08:36:34;;;;;;;8.55;3.28;;;;;;;25.69;53.83;99908.91;5097257;28;20047;-71
2022/09/16 08:39:01;;;;;;;8.95;3.22;;;;;;;25.68;53.69;99909.06;5096778;28;20044;-72
2022/09/16 08:42:04;;;;;;;8.82;3.63;;;;;;;25.67;53.62;99910.94;5096980;28;20044;-71
2022/09/16 08:44:47;;;;;;;10.25;3.28;;;;;;;25.64;53.71;99903.22;5097062;28;20047;-71
2022/09/16 08:47:40;;;;;;;4.70;3.05;;;;;;;25.63;53.92;99905.09;5095784;28;20052;-72
2022/09/16 08:50:15;;;;;;;5.22;3.20;;;;;;;25.62;54.23;99908.00;5096869;28;20044;-72
2022/09/16 08:52:43;;;;;;;7.05;2.70;;;;;;;25.62;54.39;99908.00;5096929;28;20047;-71
2022/09/16 08:55:17;;;;;;;7.53;3.50;;;;;;;25.61;54.34;99906.34;5096597;28;20079;-72
2022/09/16 08:57:56;;;;;;;4.75;3.03;;;;;;;25.58;54.10;99896.72;5096627;28;20051;-71
2022/09/16 09:00:24;;;;;;;8.93;3.22;;;;;;;25.60;54.17;99897.38;5097086;28;20472;-72
2022/09/16 09:03:06;;;;;;;6.93;3.17;;;;;;;25.60;54.11;99893.78;5096672;28;20048;-71
2022/09/16 09:05:49;;;;;;;9.50;3.58;;;;;;;25.59;54.19;99886.69;5096417;28;20044;-70
2022/09/16 09:08:20;;;;;;;7.38;3.30;;;;;;;25.60;54.32;99888.38;5095369;28;20051;-70
2022/09/16 09:10:51;;;;;;;7.25;3.00;;;;;;;25.59;54.33;99884.81;5096952;28;20048;-70
2022/09/16 09:13:27;;;;;;;9.02;3.10;;;;;;;25.60;54.33;99891.94;5096860;28;20379;-72
2022/09/16 09:16:19;;;;;;;6.22;3.20;;;;;;;25.61;54.50;99893.63;5096503;28;20040;-71
2022/09/16 09:19:06;;;;;;;5.63;2.90;;;;;;;25.62;54.25;99892.56;5096442;28;20044;-71
2022/09/16 09:22:02;;;;;;;6.72;2.95;;;;;;;25.61;54.22;99899.03;5096975;28;20078;-72
2022/09/16 09:24:32;;;;;;;7.80;3.80;;;;;;;25.63;53.95;99893.41;5096336;28;20044;-72
2022/09/16 09:27:31;;;;;;;8.55;3.90;;;;;;;25.62;53.68;99897.16;5096237;28;20048;-71
2022/09/16 09:30:07;;;;;;;4.57;3.00;;;;;;;25.62;53.44;99894.44;5095525;28;20052;-70
2022/09/16 09:32:50;;;;;;;6.97;3.42;;;;;;;25.63;53.39;99898.81;5096554;28;20044;-71
2022/09/16 09:35:46;;;;;;;4.97;2.40;;;;;;;25.63;53.47;99899.66;5095829;28;20062;-70
2022/09/16 09:38:44;;;;;;;8.38;3.22;;;;;;;25.64;53.36;99889.66;5094389;28;20063;-70
2022/09/16 09:41:15;;;;;;;5.50;2.80;;;;;;;25.65;53.42;99891.34;5093176;28;20059;-71
2022/09/16 09:43:50;;;;;;;7.65;3.35;;;;;;;25.64;53.60;99889.66;5094340;28;20056;-71
2022/09/16 09:46:30;;;;;;;7.78;4.00;;;;;;;25.67;53.81;99893.84;5094152;28;20058;-71
2022/09/16 09:49:07;;;;;;;5.10;3.20;;;;;;;25.67;53.88;99888.44;5093884;28;20052;-72
2022/09/16 09:51:41;;;;;;;6.88;3.42;;;;;;;25.66;54.05;99879.47;5077433;28;20530;-71
2022/09/16 09:54:28;;;;;;;7.45;3.20;;;;;;;25.67;54.14;99886.56;5093861;28;20480;-72
2022/09/16 09:57:02;;;;;;;5.35;3.53;;;;;;;25.69;54.16;99889.94;5093990;28;20052;-72
2022/09/16 10:00:00;;;;;;;5.38;2.75;;;;;;;25.69;54.41;99886.38;5092899;28;20071;-71
2022/09/16 10:02:44;;;;;;;8.88;3.85;;;;;;;25.68;54.29;99885.50;5093622;28;20055;-72
2022/09/16 10:05:25;;;;;;;7.75;3.55;;;;;;;25.69;54.54;99881.78;5093657;28;20048;-73
2022/09/16 10:07:56;;;;;;;5.95;3.35;;;;;;;25.71;54.41;99890.56;5093512;28;20048;-72
2022/09/16 10:10:26;;;;;;;5.45;3.10;;;;;;;25.72;54.32;99884.09;5093436;28;20056;-71
2022/09/16 10:12:54;;;;;;;6.72;3.00;;;;;;;25.73;54.17;99887.66;5093676;28;20055;-72
2022/09/16 10:15:58;;;;;;;4.53;3.15;;;;;;;25.74;54.09;99878.50;5094405;28;20056;-72
2022/09/16 10:18:31;;;;;;;7.00;3.45;;;;;;;25.75;54.06;99880.16;5095307;28;20110;-70
2022/09/16 10:21:13;;;;;;;6.40;3.10;;;;;;;25.76;54.02;99870.97;5095119;28;20055;-70
2022/09/16 10:23:56;;;;;;;5.88;2.80;;;;;;;25.76;53.75;99862.84;5094834;28;20066;-71
2022/09/16 10:26:27;;;;;;;9.40;3.75;;;;;;;25.76;53.81;99857.44;5095328;28;20044;-71
2022/09/16 10:29:01;;;;;;;7.60;4.00;;;;;;;25.78;53.97;99868.97;5095035;28;20392;-71
2022/09/16 10:31:35;;;;;;;8.00;3.40;;;;;;;25.79;54.20;99859.78;5094867;28;20048;-71
2022/09/16 10:34:11;;;;;;;5.78;3.20;;;;;;;25.80;54.30;99864.16;5095174;28;20059;-72
2022/09/16 10:36:39;;;;;;;6.43;3.13;;;;;;;25.80;54.00;99865.00;5093926;28;20055;-71
2022/09/16 10:39:22;;;;;;;9.60;4.32;;;;;;;25.81;54.26;99863.16;5094744;28;20044;-71
2022/09/16 10:41:49;;;;;;;;;;;;;;;25.82;53.96;99851.25;5095341;28;20044;-71
2022/09/16 10:44:20;;;;;;;9.65;4.20;;;;;;;25.82;54.05;99849.38;5094555;28;19920;-71
2022/09/16 10:46:50;;;;;;;6.80;3.63;;;;;;;25.84;54.12;99843.75;5094725;28;20048;-70
2022/09/16 10:49:23;;;;;;;7.43;3.30;;;;;;;25.85;53.89;99840.84;5094561;28;20036;-70
2022/09/16 10:51:50;;;;;;;5.22;3.25;;;;;;;25.86;54.01;99838.97;5094445;28;20044;-70
2022/09/16 10:54:27;;;;;;;7.22;3.08;;;;;;;25.86;53.99;99833.56;5093599;28;20048;-71
2022/09/16 10:56:54;;;;;;;4.00;3.03;;;;;;;25.87;53.80;99835.22;5094705;28;20051;-72
2022/09/16 10:59:22;;;;;;;8.27;3.22;;;;;;;25.88;54.00;99828.75;5094428;28;20036;-71
2022/09/16 11:02:28;;;;;;;8.23;3.30;;;;;;;25.88;53.86;99831.47;5094536;28;20047;-71
2022/09/16 11:05:23;;;;;;;8.48;3.70;;;;;;;25.90;54.08;99840.25;5096923;28;20056;-71
2022/09/16 11:08:04;;;;;;;7.90;3.65;;;;;;;25.91;53.96;99836.50;5094216;28;20048;-70
2022/09/16 11:11:04;;;;;;;8.73;3.40;;;;;;;25.91;53.99;99839.22;5092803;28;20484;-71
2022/09/16 11:13:41;;;;;;;7.10;3.70;;;;;;;25.92;53.67;99826.50;5112119;28;20062;-70
2022/09/16 11:16:26;;;;;;;9.10;3.30;;;;;;;25.93;53.91;99834.44;5112730;28;20051;-72
2022/09/16 11:19:12;;;;;;;5.18;3.35;;;;;;;25.94;54.07;99840.69;5112586;28;20043;-71
2022/09/16 11:22:14;;;;;;;5.68;3.58;;;;;;;25.95;53.97;99828.81;5112387;28;20052;-72
2022/09/16 11:25:06;;;;;;;9.52;3.58;;;;;;;25.97;53.85;99824.88;5011733;28;20449;-72
2022/09/16 11:28:06;;;;;;;7.15;3.35;;;;;;;25.96;54.24;99815.03;5011733;28;20050;-71
2022/09/16 11:31:01;;;;;;;5.55;3.15;;;;;;;25.98;54.17;99812.16;4976577;28;20065;-71
2022/09/16 11:33:47;;;;;;;5.82;2.95;;;;;;;25.98;54.11;99814.84;4976120;28;20061;-71
2022/09/16 11:36:23;;;;;;;6.20;3.25;;;;;;;25.98;54.10;99804.84;5012113;28;20065;-71
2022/09/16 11:39:12;;;;;;;11.30;3.92;;;;;;;25.99;54.24;99806.50;5012360;28;20046;-71
2022/09/16 11:42:00;;;;;;;19.60;4.82;;;;;;;25.99;54.68;99803.78;5011758;28;20066;-71
2022/09/16 11:44:50;;;;;;;12.88;4.43;;;;;;;26.00;54.87;99802.75;5011126;28;20085;-73
2022/09/16 11:47:40;;;;;;;10.85;3.80;;;;;;;26.00;54.67;99799.19;5011818;28;20050;-71
2022/09/16 11:50:26;;;;;;;10.88;4.13;;;;;;;26.01;55.05;99792.75;5001369;28;20449;-71
2022/09/16 11:53:24;;;;;;;9.52;3.88;;;;;;;26.01;54.89;99782.75;5011736;28;20050;-71
2022/09/16 11:55:56;;;;;;;;;;;;;;;26.01;54.82;99795.44;5012259;28;20100;-71
2022/09/16 11:58:36;;;;;;;9.93;4.13;;;;;;;26.02;54.73;99789.00;4995257;28;19921;-71
2022/09/16 12:01:19;;;;;;;8.23;3.42;;;;;;;26.02;54.65;99792.56;5030547;28;20056;-70
2022/09/16 12:04:05;;;;;;;11.55;3.35;;;;;;;26.02;54.65;99795.25;5094117;28;20071;-71
2022/09/16 12:07:16;;;;;;;10.55;3.60;;;;;;;26.03;54.54;99786.09;5097414;28;20055;-71
2022/09/16 12:09:55;;;;;;;8.50;3.30;;;;;;;26.04;54.77;99782.31;5097174;28;20052;-71